Time,TemperatureF,DewpointF,PressureIn,WindDirection,WindDirectionDegrees,WindSpeedMPH,WindSpeedGustMPH,Humidity,HourlyPrecipIn,Conditions,Clouds,dailyrainin,SoftwareType,DateUTC
2014-09-02 00:04:00,66.0,64.0,-100.00,North,355,0.0,0.0,94,-99.99,,,-99.99,,2014-09-02 05:04:00,
2014-09-02 00:13:00,66.0,64.0,-100.00,North,355,0.0,0.0,94,-99.99,,,-99.99,,2014-09-02 05:13:00,
2014-09-02 00:21:00,66.0,65.0,-100.00,North,355,0.0,0.0,94,-99.99,,,-99.99,,2014-09-02 05:21:00,
2014-09-02 00:53:00,66.0,65.0,-100.00,North,355,0.0,0.0,94,-99.99,,,-99.99,,2014-09-02 05:53:00,
2014-09-02 01:02:00,66.0,65.0,-100.00,North,355,0.0,0.0,94,-99.99,,,-99.99,,2014-09-02 06:02:00,
2014-09-02 01:21:00,65.0,64.0,-100.00,North,355,0.0,0.0,95,-99.99,,,-99.99,,2014-09-02 06:21:00,
2014-09-02 02:11:00,65.0,64.0,-100.00,North,355,0.0,0.0,95,-99.99,,,-99.99,,2014-09-02 07:11:00,
2014-09-02 02:20:00,65.0,64.0,-100.00,North,355,0.0,0.0,97,-99.99,,,-99.99,,2014-09-02 07:20:00,
2014-09-02 02:53:00,65.0,64.0,-100.00,North,355,0.0,0.0,97,-99.99,,,-99.99,,2014-09-02 07:53:00,
2014-09-02 03:02:00,65.0,64.0,-100.00,North,355,0.0,0.0,97,-99.99,,,-99.99,,2014-09-02 08:02:00,
2014-09-02 03:12:00,65.0,64.0,-100.00,North,355,0.0,0.0,97,-99.99,,,-99.99,,2014-09-02 08:12:00,
2014-09-02 04:54:00,61.0,61.0,-100.00,North,355,0.0,0.0,99,-99.99,,,-99.99,,2014-09-02 09:54:00,
2014-09-02 05:03:00,61.0,61.0,-100.00,North,355,0.0,0.0,99,-99.99,,,-99.99,,2014-09-02 10:03:00,
2014-09-02 05:13:00,61.0,61.0,-100.00,North,355,0.0,0.0,99,-99.99,,,-99.99,,2014-09-02 10:13:00,
2014-09-02 05:20:00,60.0,60.0,-100.00,North,0,0.0,0.0,99,-99.99,,,-99.99,,2014-09-02 10:20:00,
2014-09-02 05:24:00,61.0,61.0,-100.00,North,355,0.0,0.0,99,-99.99,,,-99.99,,2014-09-02 10:24:00,
2014-09-02 05:54:00,60.0,60.0,-100.00,North,0,0.0,0.0,99,-99.99,,,-99.99,,2014-09-02 10:54:00,
2014-09-02 06:22:00,60.0,60.0,-100.00,North,0,0.0,0.0,99,-99.99,,,-99.99,,2014-09-02 11:22:00,
2014-09-02 06:52:00,60.0,60.0,-100.00,North,0,0.0,0.0,99,-99.99,,,-99.99,,2014-09-02 11:52:00,
2014-09-02 07:02:00,60.0,60.0,-100.00,North,0,0.0,0.0,99,-99.99,,,-99.99,,2014-09-02 12:02:00,
2014-09-02 07:52:00,62.0,62.0,-100.00,North,0,0.0,0.0,99,-99.99,,,-99.99,,2014-09-02 12:52:00,
2014-09-02 08:02:00,62.0,62.0,-100.00,North,0,0.0,0.0,99,-99.99,,,-99.99,,2014-09-02 13:02:00,
2014-09-02 08:12:00,62.0,62.0,-100.00,North,0,0.0,0.0,99,-99.99,,,-99.99,,2014-09-02 13:12:00,
2014-09-02 08:23:00,69.0,65.0,-100.00,North,355,0.0,0.0,86,-99.99,,,-99.99,,2014-09-02 13:23:00,
2014-09-02 08:53:00,69.0,65.0,-100.00,North,355,0.0,0.0,86,-99.99,,,-99.99,,2014-09-02 13:53:00,
2014-09-02 09:03:00,69.0,65.0,-100.00,North,355,0.0,0.0,86,-99.99,,,-99.99,,2014-09-02 14:03:00,
2014-09-02 09:12:00,69.0,65.0,-100.00,North,355,0.0,0.0,86,-99.99,,,-99.99,,2014-09-02 14:12:00,
2014-09-02 09:22:00,74.0,60.0,-100.00,North,355,0.0,0.0,62,-99.99,,,-99.99,,2014-09-02 14:22:00,
2014-09-02 09:53:00,74.0,60.0,-100.00,North,355,0.0,0.0,62,-99.99,,,-99.99,,2014-09-02 14:53:00,
2014-09-02 10:02:00,74.0,60.0,-100.00,North,355,0.0,0.0,62,-99.99,,,-99.99,,2014-09-02 15:02:00,
2014-09-02 10:12:00,74.0,60.0,-100.00,North,355,0.0,0.0,62,-99.99,,,-99.99,,2014-09-02 15:12:00,
2014-09-02 11:04:00,75.0,58.0,-100.00,North,355,0.0,0.0,55,-99.99,,,-99.99,,2014-09-02 16:04:00,
2014-09-02 11:13:00,75.0,58.0,-100.00,North,355,0.0,0.0,55,-99.99,,,-99.99,,2014-09-02 16:13:00,
2014-09-02 11:22:00,76.0,60.0,-100.00,North,355,0.0,0.0,58,-99.99,,,-99.99,,2014-09-02 16:22:00,
2014-09-02 12:13:00,76.0,60.0,-100.00,North,355,0.0,0.0,58,-99.99,,,-99.99,,2014-09-02 17:13:00,
2014-09-02 14:02:00,79.0,60.0,-100.00,North,355,0.0,0.0,52,-99.99,,,-99.99,,2014-09-02 19:02:00,
2014-09-02 14:12:00,79.0,60.0,-100.00,North,355,0.0,0.0,52,-99.99,,,-99.99,,2014-09-02 19:12:00,
2014-09-02 14:53:00,79.0,60.0,-100.00,North,355,0.0,0.0,51,-99.99,,,-99.99,,2014-09-02 19:53:00,
2014-09-02 18:03:00,78.0,61.0,-100.00,North,355,0.0,0.0,55,-99.99,,,-99.99,,2014-09-02 23:03:00,
2014-09-02 18:12:00,78.0,61.0,-100.00,North,355,0.0,0.0,55,-99.99,,,-99.99,,2014-09-02 23:12:00,
2014-09-02 18:52:00,75.0,62.0,-100.00,North,355,0.0,0.0,63,-99.99,,,-99.99,,2014-09-02 23:52:00,
2014-09-02 19:02:00,75.0,62.0,-100.00,North,355,0.0,0.0,63,-99.99,,,-99.99,,2014-09-03 00:02:00,
2014-09-02 19:12:00,75.0,62.0,-100.00,North,355,0.0,0.0,63,-99.99,,,-99.99,,2014-09-03 00:12:00,
2014-09-02 19:20:00,71.0,65.0,-100.00,North,355,0.0,0.0,81,-99.99,,,-99.99,,2014-09-03 00:20:00,
2014-09-02 19:22:00,75.0,62.0,-100.00,North,355,0.0,0.0,63,-99.99,,,-99.99,,2014-09-03 00:22:00,
2014-09-02 19:52:00,71.0,65.0,-100.00,North,355,0.0,0.0,81,-99.99,,,-99.99,,2014-09-03 00:52:00,
2014-09-02 20:02:00,71.0,65.0,-100.00,North,355,0.0,0.0,81,-99.99,,,-99.99,,2014-09-03 01:02:00,
2014-09-02 20:11:00,71.0,65.0,-100.00,North,355,0.0,0.0,81,-99.99,,,-99.99,,2014-09-03 01:11:00,
2014-09-02 20:22:00,66.0,64.0,-100.00,North,355,0.0,0.0,93,-99.99,,,-99.99,,2014-09-03 01:22:00,
2014-09-02 20:53:00,66.0,64.0,-100.00,North,355,0.0,0.0,93,-99.99,,,-99.99,,2014-09-03 01:53:00,
2014-09-02 21:03:00,66.0,64.0,-100.00,North,355,0.0,0.0,93,-99.99,,,-99.99,,2014-09-03 02:03:00,
2014-09-02 21:12:00,66.0,64.0,-100.00,North,355,0.0,0.0,93,-99.99,,,-99.99,,2014-09-03 02:12:00,
2014-09-02 21:21:00,63.0,62.0,-100.00,North,355,0.0,0.0,96,-99.99,,,-99.99,,2014-09-03 02:21:00,
2014-09-02 21:53:00,63.0,62.0,-100.00,North,355,0.0,0.0,96,-99.99,,,-99.99,,2014-09-03 02:53:00,
2014-09-02 22:02:00,63.0,62.0,-100.00,North,355,0.0,0.0,96,-99.99,,,-99.99,,2014-09-03 03:02:00,
2014-09-02 22:11:00,63.0,62.0,-100.00,North,355,0.0,0.0,96,-99.99,,,-99.99,,2014-09-03 03:11:00,